Time;durP1;ratioP1;P1;durP2;ratioP2;P2;SDS_P1;SDS_P2;PMS_P1;PMS_P2;Temp;Humidity;BMP_temperature;BMP_pressure;BME280_temperature;BME280_humidity;BME280_pressure;Samples;Min_cycle;Max_cycle;Signal;HPM_P1;HPM_P2
2023/01/22 00:00:10;;;;;;;;;;;;;;;26.40;49.62;96794.58;618820;229;66628;-72
2023/01/22 00:02:40;;;;;;;;;;;;;;;26.40;50.43;96774.93;618875;229;62363;-72
2023/01/22 00:05:09;;;;;;;;;;;;;;;26.41;50.82;96792.67;618823;229;64763;-72
2023/01/22 00:07:36;;;;;;;;;;;;;;;26.39;51.75;96794.91;618754;229;66803;-72
2023/01/22 00:10:04;;;;;;;;;;;;;;;26.38;50.71;96809.47;618779;229;64869;-72
2023/01/22 00:12:32;;;;;;;;;;;;;;;26.37;49.97;96810.58;618826;229;67083;-72
2023/01/22 00:14:59;;;;;;;;;;;;;;;26.37;50.33;96789.81;618812;229;66658;-71
2023/01/22 00:17:26;;;;;;;;;;;;;;;26.37;50.63;96786.34;618831;229;62734;-71
2023/01/22 00:19:54;;;;;;;;;;;;;;;26.35;51.04;96798.23;618796;229;66752;-71
2023/01/22 00:22:21;;;;;;;;;;;;;;;26.34;50.33;96791.23;618772;228;66656;-71
2023/01/22 00:24:49;;;;;;;;;;;;;;;26.33;51.11;96786.96;618828;229;64885;-71
2023/01/22 00:27:16;;;;;;;;;;;;;;;26.33;49.22;96795.05;618807;229;66672;-71
2023/01/22 00:29:44;;;;;;;;;;;;;;;26.32;50.89;96801.52;618862;229;66660;-71
2023/01/22 00:32:11;;;;;;;;;;;;;;;26.32;49.45;96806.12;618814;229;65238;-73
2023/01/22 00:34:40;;;;;;;;;;;;;;;26.32;50.72;96803.42;618755;229;64028;-73
2023/01/22 00:37:08;;;;;;;;;;;;;;;26.30;50.94;96803.75;618803;229;64571;-74
2023/01/22 00:39:35;;;;;;;;;;;;;;;26.30;49.41;96808.32;619180;228;64869;-74
2023/01/22 00:42:03;;;;;;;;;;;;;;;26.29;49.56;96812.92;619696;229;64636;-73
2023/01/22 00:44:31;;;;;;;;;;;;;;;26.27;50.27;96817.84;619623;229;67124;-74
2023/01/22 00:46:58;;;;;;;;;;;;;;;26.28;50.22;96824.81;619647;229;66011;-74
2023/01/22 00:49:26;;;;;;;;;;;;;;;26.28;51.98;96835.59;619638;229;66855;-74
2023/01/22 00:51:53;;;;;;;;;;;;;;;26.26;51.05;96837.78;619663;229;66392;-74
2023/01/22 00:54:21;;;;;;;;;;;;;;;26.26;50.43;96843.17;619702;229;64794;-73
2023/01/22 00:56:49;;;;;;;;;;;;;;;26.26;50.74;96837.78;619652;229;66861;-73
2023/01/22 00:59:16;;;;;;;;;;;;;;;26.25;50.32;96830.03;619616;229;67030;-74
2023/01/22 01:01:43;;;;;;;;;;;;;;;26.24;50.67;96834.59;619646;229;63674;-73
2023/01/22 01:04:13;;;;;;;;;;;;;;;26.22;51.27;96834.13;619606;229;66750;-74
2023/01/22 01:06:40;;;;;;;;;;;;;;;26.22;50.86;96844.91;619714;229;66646;-74
2023/01/22 01:09:08;;;;;;;;;;;;;;;26.21;50.74;96842.52;619617;229;64886;-73
2023/01/22 01:11:36;;;;;;;;;;;;;;;26.19;51.46;96840.14;619651;229;64618;-73
2023/01/22 01:14:04;;;;;;;;;;;;;;;26.18;50.88;96843.92;619622;229;64708;-73
2023/01/22 01:16:31;;;;;;;;;;;;;;;26.18;52.42;96851.21;619638;229;62738;-73
2023/01/22 01:19:00;;;;;;;;;;;;;;;26.17;50.54;96846.94;619677;229;66750;-73
2023/01/22 01:21:28;;;;;;;;;;;;;;;26.16;50.80;96851.51;619678;229;66827;-73
2023/01/22 01:23:56;;;;;;;;;;;;;;;26.15;50.30;96847.23;619626;229;64912;-73
2023/01/22 01:26:24;;;;;;;;;;;;;;;26.15;51.91;96849.93;619642;229;67049;-74
2023/01/22 01:28:51;;;;;;;;;;;;;;;26.13;51.21;96861.00;619618;229;64568;-73
2023/01/22 01:31:21;;;;;;;;;;;;;;;26.13;51.40;96866.38;619617;229;63655;-74
2023/01/22 01:33:49;;;;;;;;;;;;;;;26.12;52.33;96854.03;619741;229;64728;-73
2023/01/22 01:36:18;;;;;;;;;;;;;;;26.11;51.80;96865.92;619681;229;66692;-71
2023/01/22 01:38:45;;;;;;;;;;;;;;;26.11;51.96;96870.52;619574;229;62811;-71
2023/01/22 01:41:14;;;;;;;;;;;;;;;26.11;50.58;96875.91;618848;229;64693;-71
2023/01/22 01:43:41;;;;;;;;;;;;;;;26.09;52.11;96873.50;618838;229;66658;-71
2023/01/22 01:46:20;;;;;;;;;;;;;;;26.09;51.08;96875.41;618867;229;64782;-71
2023/01/22 01:48:49;;;;;;;;;;;;;;;26.07;51.27;96873.01;618586;228;66722;-71
2023/01/22 01:51:21;;;;;;;;;;;;;;;26.07;51.12;96877.60;618793;229;67182;-71
2023/01/22 01:53:50;;;;;;;;;;;;;;;26.07;51.25;96877.60;618846;229;64839;-71
2023/01/22 01:56:19;;;;;;;;;;;;;;;26.06;50.61;96873.33;618809;229;65209;-71
2023/01/22 01:58:50;;;;;;;;;;;;;;;26.05;50.49;96860.95;618561;228;64670;-71
2023/01/22 02:01:18;;;;;;;;;;;;;;;26.05;50.46;96863.64;618886;228;62903;-71
2023/01/22 02:03:46;;;;;;;;;;;;;;;26.04;50.87;96862.86;618824;229;64596;-71
2023/01/22 02:06:15;;;;;;;;;;;;;;;26.04;51.35;96856.68;618833;228;66393;-71
2023/01/22 02:08:45;;;;;;;;;;;;;;;26.02;51.06;96858.88;618777;229;66154;-71
2023/01/22 02:11:13;;;;;;;;;;;;;;;26.02;50.98;96842.72;618822;228;66700;-71
2023/01/22 02:13:42;;;;;;;;;;;;;;;26.01;50.77;96854.61;618786;229;67079;-71
2023/01/22 02:16:10;;;;;;;;;;;;;;;26.01;50.20;96849.22;618883;229;63825;-72
2023/01/22 02:18:38;;;;;;;;;;;;;;;26.00;51.43;96848.43;618813;229;67026;-72
2023/01/22 02:21:07;;;;;;;;;;;;;;;25.99;51.89;96846.03;618793;228;66720;-71
2023/01/22 02:23:34;;;;;;;;;;;;;;;25.99;51.29;96854.11;618149;229;66125;-72
2023/01/22 02:26:03;;;;;;;;;;;;;;;25.98;50.90;96852.53;618813;229;67070;-72
2023/01/22 02:28:31;;;;;;;;;;;;;;;25.98;52.55;96857.92;618861;229;64612;-72
2023/01/22 02:30:58;;;;;;;;;;;;;;;25.97;51.55;96861.69;618861;229;64899;-72
2023/01/22 02:33:26;;;;;;;;;;;;;;;25.96;51.95;96860.11;618788;229;66511;-72
2023/01/22 02:35:53;;;;;;;;;;;;;;;25.95;51.59;96858.53;618834;228;64634;-72
2023/01/22 02:38:22;;;;;;;;;;;;;;;25.94;50.81;96856.92;618666;228;64987;-72
2023/01/22 02:40:50;;;;;;;;;;;;;;;25.93;51.28;96866.91;618792;229;67098;-72
2023/01/22 02:43:19;;;;;;;;;;;;;;;25.93;51.47;96868.80;618882;229;63975;-72
2023/01/22 02:45:46;;;;;;;;;;;;;;;25.91;51.34;96875.27;618819;229;64877;-72
2023/01/22 02:48:14;;;;;;;;;;;;;;;25.91;51.51;96872.58;618789;229;66798;-72
2023/01/22 02:50:43;;;;;;;;;;;;;;;25.91;51.85;96877.17;618839;229;67460;-71
2023/01/22 02:53:11;;;;;;;;;;;;;;;25.90;51.50;96873.70;618832;229;65055;-72
2023/01/22 02:55:39;;;;;;;;;;;;;;;25.90;51.43;96875.59;614473;229;64064;-72
2023/01/22 02:58:07;;;;;;;;;;;;;;;25.88;51.88;96880.48;618854;229;66365;-72
2023/01/22 03:00:34;;;;;;;;;;;;;;;25.88;51.98;96883.17;618815;229;64849;-72
2023/01/22 03:03:06;;;;;;;;;;;;;;;25.86;51.33;96880.81;618829;228;64326;-72
2023/01/22 03:05:31;;;;;;;;;;;;;;;25.87;52.00;96889.67;618780;228;64211;-72
2023/01/22 03:07:59;;;;;;;;;;;;;;;25.84;51.45;96893.77;618878;229;64882;-72
2023/01/22 03:10:26;;;;;;;;;;;;;;;25.84;51.41;96888.39;618828;229;64417;-72
2023/01/22 03:21:18;;;;;;;;;;;;;;;25.81;53.20;96897.05;618847;229;66622;-71
2023/01/22 03:23:44;;;;;;;;;;;;;;;25.81;52.55;96890.84;618775;228;62657;-71
2023/01/22 03:26:12;;;;;;;;;;;;;;;25.79;51.28;96896.55;618865;229;66755;-71
2023/01/22 03:28:39;;;;;;;;;;;;;;;25.78;51.60;96880.69;618788;229;66859;-70
2023/01/22 03:31:08;;;;;;;;;;;;;;;25.78;51.13;96880.69;618844;229;62685;-71
2023/01/22 03:33:35;;;;;;;;;;;;;;;25.77;51.14;96884.49;618786;229;66790;-71
2023/01/22 03:36:06;;;;;;;;;;;;;;;25.77;51.29;96879.90;618840;228;45057;-71
2023/01/22 03:38:35;;;;;;;;;;;;;;;25.76;51.39;96885.61;618845;228;62348;-72
2023/01/22 03:41:03;;;;;;;;;;;;;;;25.75;51.56;96887.48;618797;229;67256;-72
2023/01/22 03:43:32;;;;;;;;;;;;;;;25.74;52.89;96885.89;618827;228;64563;-72
2023/01/22 03:46:05;;;;;;;;;;;;;;;25.74;51.40;96885.11;618837;229;65750;-72
2023/01/22 03:48:34;;;;;;;;;;;;;;;25.73;52.98;96872.73;618756;229;66981;-71
2023/01/22 03:51:06;;;;;;;;;;;;;;;25.73;51.83;96878.11;618823;229;66762;-71
2023/01/22 03:53:34;;;;;;;;;;;;;;;25.73;51.40;96888.88;618849;229;62533;-72
2023/01/22 03:56:05;;;;;;;;;;;;;;;25.70;52.54;96874.16;618761;229;67407;-71
2023/01/22 03:58:34;;;;;;;;;;;;;;;25.71;51.43;96878.44;618816;229;65088;-71
2023/01/22 04:01:04;;;;;;;;;;;;;;;25.69;52.55;96881.42;618795;228;66305;-71
2023/01/22 04:03:32;;;;;;;;;;;;;;;25.68;52.05;96887.91;618803;229;66822;-71
2023/01/22 04:06:00;;;;;;;;;;;;;;;25.69;52.38;96894.09;618874;229;66640;-72
2023/01/22 04:08:28;;;;;;;;;;;;;;;25.68;52.08;96887.12;618821;229;62787;-71
2023/01/22 04:10:57;;;;;;;;;;;;;;;25.67;53.74;96893.59;618809;229;66703;-71
2023/01/22 04:13:25;;;;;;;;;;;;;;;25.66;52.50;96900.88;618807;229;66897;-71
2023/01/22 04:15:52;;;;;;;;;;;;;;;25.65;52.34;96915.44;618802;229;65993;-71
2023/01/22 04:18:28;;;;;;;;;;;;;;;25.65;52.58;96915.44;610933;228;48290;-71
2023/01/22 04:21:01;;;;;;;;;;;;;;;25.64;51.90;96916.52;618327;228;48144;-72
2023/01/22 04:23:30;;;;;;;;;;;;;;;25.64;52.05;96913.03;618719;228;43429;-72
2023/01/22 04:25:57;;;;;;;;;;;;;;;25.62;53.39;96929.50;618783;229;66688;-72
2023/01/22 04:28:25;;;;;;;;;;;;;;;25.62;51.16;96936.78;618823;229;64369;-72
2023/01/22 04:30:55;;;;;;;;;;;;;;;25.62;51.78;96937.58;618568;228;42587;-72
2023/01/22 04:33:33;;;;;;;;;;;;;;;25.60;53.65;96936.28;613544;229;48516;-72
2023/01/22 04:36:03;;;;;;;;;;;;;;;25.59;52.38;96942.75;618768;229;44298;-71
2023/01/22 04:38:30;;;;;;;;;;;;;;;25.60;52.17;96949.73;617837;229;64894;-71
2023/01/22 04:40:58;;;;;;;;;;;;;;;25.59;52.89;96948.95;617940;227;66702;-71
2023/01/22 04:43:25;;;;;;;;;;;;;;;25.58;52.64;96946.55;617725;229;63696;-71
2023/01/22 04:45:53;;;;;;;;;;;;;;;25.58;53.20;96960.80;618010;229;64892;-71
2023/01/22 04:48:22;;;;;;;;;;;;;;;25.56;52.38;96965.67;618773;229;45568;-72
2023/01/22 04:50:50;;;;;;;;;;;;;;;25.56;51.17;96965.67;618786;229;66663;-72
2023/01/22 04:53:18;;;;;;;;;;;;;;;25.56;51.69;96967.58;618783;228;65660;-72
2023/01/22 04:55:46;;;;;;;;;;;;;;;25.55;53.34;96972.16;618794;229;64115;-72
2023/01/22 04:58:14;;;;;;;;;;;;;;;25.54;51.96;96983.25;618804;229;66657;-72
2023/01/22 05:00:42;;;;;;;;;;;;;;;25.55;52.52;96990.20;618863;228;62347;-72
2023/01/22 05:03:11;;;;;;;;;;;;;;;25.52;52.68;96986.22;618810;229;67310;-72
2023/01/22 05:05:40;;;;;;;;;;;;;;;25.52;51.97;96998.89;618818;228;48632;-72
2023/01/22 05:08:08;;;;;;;;;;;;;;;25.52;52.02;96991.61;618802;229;64837;-72
2023/01/22 05:10:38;;;;;;;;;;;;;;;25.50;52.29;96987.62;618819;229;64453;-72
2023/01/22 05:13:07;;;;;;;;;;;;;;;25.52;52.93;96977.36;618945;228;45352;-71
2023/01/22 05:15:36;;;;;;;;;;;;;;;25.50;52.62;96990.31;618807;229;65013;-71
2023/01/22 05:18:05;;;;;;;;;;;;;;;25.50;51.67;97009.14;618734;228;44176;-71
2023/01/22 05:20:34;;;;;;;;;;;;;;;25.49;53.18;97012.94;618851;228;44109;-71
2023/01/22 05:23:02;;;;;;;;;;;;;;;25.48;51.42;97017.50;618850;229;62645;-72
2023/01/22 05:25:30;;;;;;;;;;;;;;;25.46;51.76;97017.82;618842;229;67018;-72
2023/01/22 05:27:58;;;;;;;;;;;;;;;25.46;52.03;97017.03;618904;229;65480;-72
2023/01/22 05:30:34;;;;;;;;;;;;;;;25.45;53.29;97021.62;618408;228;43838;-72
2023/01/22 05:33:03;;;;;;;;;;;;;;;25.43;52.29;97026.49;617763;229;48167;-72
2023/01/22 05:35:31;;;;;;;;;;;;;;;25.44;52.26;97032.66;618873;227;66592;-72
2023/01/22 05:37:58;;;;;;;;;;;;;;;25.42;53.32;97019.50;618845;229;62808;-71
2023/01/22 05:40:26;;;;;;;;;;;;;;;25.42;51.97;97026.78;618850;229;66827;-72
2023/01/22 05:42:53;;;;;;;;;;;;;;;25.42;52.83;97027.58;618849;229;66666;-72
2023/01/22 05:45:22;;;;;;;;;;;;;;;25.41;51.95;97031.38;618809;229;62536;-71
2023/01/22 05:48:09;;;;;;;;;;;;;;;25.40;52.29;97029.78;618437;228;44071;-71
2023/01/22 05:50:41;;;;;;;;;;;;;;;25.39;53.27;97044.31;618645;229;43362;-71
2023/01/22 05:53:10;;;;;;;;;;;;;;;25.37;53.11;97043.84;618830;229;65704;-72
2023/01/22 05:55:38;;;;;;;;;;;;;;;25.38;53.16;97045.42;618836;229;66915;-72
2023/01/22 05:58:05;;;;;;;;;;;;;;;25.36;52.79;97044.13;618829;229;66953;-72
2023/01/22 06:00:33;;;;;;;;;;;;;;;25.36;53.42;97047.61;618818;229;62335;-71
2023/01/22 06:03:02;;;;;;;;;;;;;;;25.36;54.14;97046.81;618812;229;67439;-72
2023/01/22 06:05:31;;;;;;;;;;;;;;;25.35;53.56;97058.68;618895;228;43055;-73
2023/01/22 06:08:00;;;;;;;;;;;;;;;25.34;53.12;97062.45;618836;228;42398;-73
2023/01/22 06:10:29;;;;;;;;;;;;;;;25.34;55.21;97065.93;618798;228;43079;-73
2023/01/22 06:12:58;;;;;;;;;;;;;;;25.33;53.69;97071.63;618840;229;67558;-73
2023/01/22 06:15:25;;;;;;;;;;;;;;;25.33;53.48;97066.25;618837;229;64864;-73
2023/01/22 06:17:56;;;;;;;;;;;;;;;25.32;51.92;97078.08;618681;228;43354;-73
2023/01/22 06:20:23;;;;;;;;;;;;;;;25.31;53.59;97082.67;618767;228;64533;-73
2023/01/22 06:22:55;;;;;;;;;;;;;;;25.30;53.01;97089.16;618848;228;64914;-73
2023/01/22 06:25:23;;;;;;;;;;;;;;;25.29;54.58;97084.88;618836;229;66971;-73
2023/01/22 06:28:01;;;;;;;;;;;;;;;25.27;52.33;97092.44;618691;228;45315;-73
2023/01/22 06:30:31;;;;;;;;;;;;;;;25.28;53.69;97095.92;618686;228;64872;-73
2023/01/22 06:33:00;;;;;;;;;;;;;;;25.26;53.53;97096.20;618791;229;65393;-74
2023/01/22 06:35:28;;;;;;;;;;;;;;;25.26;53.47;97093.52;618864;229;64229;-73
2023/01/22 06:37:56;;;;;;;;;;;;;;;25.24;53.51;97099.21;618838;229;65087;-73
2023/01/22 06:40:28;;;;;;;;;;;;;;;25.24;53.42;97098.42;619499;228;46728;-73
2023/01/22 06:42:56;;;;;;;;;;;;;;;25.24;52.99;97099.21;619655;227;66777;-73
2023/01/22 06:45:24;;;;;;;;;;;;;;;25.24;52.85;97109.17;619666;229;64882;-73
2023/01/22 06:47:55;;;;;;;;;;;;;;;25.23;52.99;97112.94;619661;229;66815;-73
2023/01/22 06:50:26;;;;;;;;;;;;;;;25.22;53.80;97122.11;619559;228;45206;-73
2023/01/22 06:53:00;;;;;;;;;;;;;;;25.21;53.23;97129.39;619674;229;62736;-73
2023/01/22 06:55:31;;;;;;;;;;;;;;;25.20;53.21;97129.67;619608;228;46575;-73
2023/01/22 06:58:01;;;;;;;;;;;;;;;25.21;51.75;97136.66;619678;227;48101;-73
2023/01/22 07:00:32;;;;;;;;;;;;;;;25.21;53.04;97136.66;619680;229;64893;-73
2023/01/22 07:03:03;;;;;;;;;;;;;;;25.19;51.99;97131.57;619511;228;45517;-73
2023/01/22 07:05:34;;;;;;;;;;;;;;;25.19;53.84;97139.64;619839;227;47444;-73
2023/01/22 07:08:01;;;;;;;;;;;;;;;25.18;53.92;97146.12;619726;229;66042;-73
2023/01/22 07:10:34;;;;;;;;;;;;;;;25.19;53.42;97144.22;619673;227;46450;-73
2023/01/22 07:13:06;;;;;;;;;;;;;;;25.19;52.89;97141.53;619652;229;65492;-73
2023/01/22 07:15:36;;;;;;;;;;;;;;;25.19;54.21;97141.53;619698;229;63795;-73
2023/01/22 07:18:09;;;;;;;;;;;;;;;25.19;54.36;97145.02;619716;229;66514;-73
2023/01/22 07:20:45;;;;;;;;;;;;;;;25.21;53.80;97147.42;619741;227;47201;-73
2023/01/22 07:23:09;;;;;;;;;;;;;;;25.21;52.70;97156.28;619505;228;65106;-73
2023/01/22 07:25:38;;;;;;;;;;;;;;;25.20;52.54;97161.95;619685;229;66485;-74
2023/01/22 07:28:06;;;;;;;;;;;;;;;25.22;53.49;97162.45;619675;229;66673;-74
2023/01/22 07:30:37;;;;;;;;;;;;;;;25.21;53.89;97158.98;619668;229;64919;-74
2023/01/22 07:33:09;;;;;;;;;;;;;;;25.22;53.11;97162.45;619744;227;47626;-74
2023/01/22 07:35:37;;;;;;;;;;;;;;;25.23;52.37;97156.77;619631;229;66714;-74
2023/01/22 07:38:05;;;;;;;;;;;;;;;25.24;51.75;97154.90;619652;229;64942;-74
2023/01/22 07:40:32;;;;;;;;;;;;;;;25.24;53.79;97161.08;618935;229;67338;-74
2023/01/22 07:43:00;;;;;;;;;;;;;;;25.25;53.42;97164.55;618817;229;66688;-74
2023/01/22 07:45:27;;;;;;;;;;;;;;;25.25;51.87;97168.03;618864;229;64919;-74
2023/01/22 07:47:56;;;;;;;;;;;;;;;25.26;53.09;97166.14;618790;228;64287;-74
2023/01/22 07:50:28;;;;;;;;;;;;;;;25.26;52.31;97171.52;618782;229;66710;-74
2023/01/22 07:52:55;;;;;;;;;;;;;;;25.27;53.12;97170.45;618815;229;62816;-74
2023/01/22 07:55:23;;;;;;;;;;;;;;;25.29;52.07;97162.06;618824;229;66719;-75
2023/01/22 07:58:00;;;;;;;;;;;;;;;25.30;51.60;97169.84;618861;229;67512;-74
2023/01/22 08:00:27;;;;;;;;;;;;;;;25.29;52.37;97165.58;618869;229;64860;-75
2023/01/22 08:02:55;;;;;;;;;;;;;;;25.28;50.05;97163.96;618811;227;64443;-74
2023/01/22 08:05:22;;;;;;;;;;;;;;;25.28;52.34;97163.96;618805;229;64435;-74
2023/01/22 08:07:50;;;;;;;;;;;;;;;25.30;51.97;97172.54;618755;229;62734;-74
2023/01/22 08:10:17;;;;;;;;;;;;;;;25.31;53.49;97174.13;618775;229;64538;-76
2023/01/22 08:12:45;;;;;;;;;;;;;;;25.31;51.90;97174.13;618812;229;64544;-75
2023/01/22 08:15:12;;;;;;;;;;;;;;;25.33;52.83;97173.84;618820;228;62783;-75
2023/01/22 08:17:39;;;;;;;;;;;;;;;25.33;52.14;97182.70;618799;229;66627;-75
2023/01/22 08:20:08;;;;;;;;;;;;;;;25.34;52.50;97183.50;618849;229;65981;-74
2023/01/22 08:22:35;;;;;;;;;;;;;;;25.34;51.75;97183.50;618803;229;65037;-75
2023/01/22 08:25:03;;;;;;;;;;;;;;;25.35;52.11;97182.42;618867;228;66519;-75
2023/01/22 08:27:33;;;;;;;;;;;;;;;25.36;51.28;97187.49;618816;229;66851;-75
2023/01/22 08:30:00;;;;;;;;;;;;;;;25.37;50.85;97190.98;618808;229;65220;-75
2023/01/22 08:32:28;;;;;;;;;;;;;;;25.37;50.71;97199.87;618821;229;66506;-74
2023/01/22 08:34:55;;;;;;;;;;;;;;;25.38;51.34;97201.45;618826;229;65958;-74
2023/01/22 08:37:23;;;;;;;;;;;;;;;25.39;51.26;97203.05;618831;228;65146;-74
2023/01/22 08:39:51;;;;;;;;;;;;;;;25.41;52.02;97211.63;618835;229;66514;-75
2023/01/22 08:42:18;;;;;;;;;;;;;;;25.41;52.19;97200.86;618812;229;64229;-74
2023/01/22 08:44:46;;;;;;;;;;;;;;;25.42;50.34;97213.21;618828;229;62771;-75
2023/01/22 08:47:13;;;;;;;;;;;;;;;25.43;52.11;97209.45;618843;229;63983;-76
2023/01/22 08:49:42;;;;;;;;;;;;;;;25.43;51.37;97206.75;618793;229;67239;-76
2023/01/22 08:52:09;;;;;;;;;;;;;;;25.44;52.22;97200.27;618859;229;64849;-76
2023/01/22 08:54:37;;;;;;;;;;;;;;;25.46;50.88;97198.09;618813;229;66781;-76
2023/01/22 08:57:04;;;;;;;;;;;;;;;25.47;51.96;97204.27;618823;229;65189;-76
2023/01/22 08:59:32;;;;;;;;;;;;;;;25.46;52.83;97198.09;618811;229;65006;-76
2023/01/22 09:01:59;;;;;;;;;;;;;;;25.49;52.48;97201.29;618831;228;66528;-76
2023/01/22 09:04:27;;;;;;;;;;;;;;;25.49;52.58;97196.70;618872;229;66276;-76
2023/01/22 09:06:55;;;;;;;;;;;;;;;25.50;51.28;97192.11;618887;229;62963;-76
2023/01/22 09:09:23;;;;;;;;;;;;;;;25.51;53.00;97193.70;618780;229;64345;-76
2023/01/22 09:11:50;;;;;;;;;;;;;;;25.51;52.77;97199.08;618837;229;64322;-76
2023/01/22 09:14:18;;;;;;;;;;;;;;;25.50;51.41;97195.59;618832;229;64756;-76
2023/01/22 09:16:46;;;;;;;;;;;;;;;25.52;51.62;97196.11;618784;229;66477;-76
2023/01/22 09:19:14;;;;;;;;;;;;;;;25.52;51.60;97193.41;618868;229;66312;-76
2023/01/22 09:21:41;;;;;;;;;;;;;;;25.54;52.14;97188.54;618810;229;64983;-76
2023/01/22 09:24:09;;;;;;;;;;;;;;;25.54;53.11;97193.92;618854;229;66565;-76
2023/01/22 09:26:36;;;;;;;;;;;;;;;25.55;52.66;97186.64;618775;229;66357;-76
2023/01/22 09:29:04;;;;;;;;;;;;;;;25.56;51.94;97185.53;618812;229;65027;-76
2023/01/22 09:31:33;;;;;;;;;;;;;;;25.56;51.25;97180.16;618870;229;64643;-75
2023/01/22 09:34:00;;;;;;;;;;;;;;;25.57;52.58;97173.70;618820;229;66193;-75
2023/01/22 09:36:28;;;;;;;;;;;;;;;25.57;52.50;97181.77;618793;229;62745;-75
2023/01/22 09:38:55;;;;;;;;;;;;;;;25.58;52.34;97183.36;618788;229;64239;-75
2023/01/22 09:41:30;;;;;;;;;;;;;;;25.58;51.12;97183.36;618822;229;66599;-75
2023/01/22 09:44:02;;;;;;;;;;;;;;;25.58;51.75;97181.45;618781;228;64934;-75
2023/01/22 09:46:40;;;;;;;;;;;;;;;25.58;50.74;97176.08;615259;229;66237;-75
2023/01/22 09:49:10;;;;;;;;;;;;;;;25.58;52.01;97178.77;618743;228;64228;-76
2023/01/22 09:51:37;;;;;;;;;;;;;;;25.58;51.66;97173.39;618176;228;62809;-75
2023/01/22 09:54:11;;;;;;;;;;;;;;;25.59;52.64;97185.77;618750;229;64269;-76
2023/01/22 09:56:41;;;;;;;;;;;;;;;25.60;51.81;97179.28;618775;228;67358;-75
2023/01/22 09:59:20;;;;;;;;;;;;;;;25.60;52.54;97176.58;618842;229;65104;-76
2023/01/22 10:01:54;;;;;;;;;;;;;;;25.61;50.03;97177.38;618880;229;66165;-76
2023/01/22 10:04:27;;;;;;;;;;;;;;;25.62;52.28;97176.30;618753;229;66382;-75
2023/01/22 10:06:56;;;;;;;;;;;;;;;25.61;52.35;97174.69;618641;228;63659;-75
2023/01/22 10:09:23;;;;;;;;;;;;;;;25.60;52.11;97184.66;618756;229;66811;-75
2023/01/22 10:11:52;;;;;;;;;;;;;;;25.60;51.99;97190.04;617940;229;66388;-75
2023/01/22 10:14:21;;;;;;;;;;;;;;;25.61;52.44;97183.55;617989;229;65188;-76
2023/01/22 10:16:49;;;;;;;;;;;;;;;25.61;51.69;97177.38;618536;228;66575;-75
2023/01/22 10:19:30;;;;;;;;;;;;;;;25.62;51.81;97179.78;618802;229;66319;-75
2023/01/22 10:21:59;;;;;;;;;;;;;;;25.63;52.18;97175.98;618708;228;65000;-75
2023/01/22 10:24:28;;;;;;;;;;;;;;;25.63;52.40;97170.60;618523;228;66663;-76
2023/01/22 10:26:58;;;;;;;;;;;;;;;25.63;51.68;97175.20;618860;229;66333;-75
2023/01/22 10:29:27;;;;;;;;;;;;;;;25.63;52.26;97170.60;618819;229;65052;-75
2023/01/22 10:31:57;;;;;;;;;;;;;;;25.63;52.48;97165.22;618804;229;66497;-75
2023/01/22 10:34:36;;;;;;;;;;;;;;;25.64;52.40;97155.25;618853;229;66319;-75
2023/01/22 10:37:15;;;;;;;;;;;;;;;25.63;52.08;97157.14;618451;228;62609;-76
2023/01/22 10:39:44;;;;;;;;;;;;;;;25.63;50.93;97151.77;619256;228;66457;-75
2023/01/22 10:42:29;;;;;;;;;;;;;;;25.64;51.77;97160.63;619733;229;64211;-76
2023/01/22 10:45:10;;;;;;;;;;;;;;;25.63;51.74;97154.45;619642;227;64915;-75
2023/01/22 10:47:39;;;;;;;;;;;;;;;25.63;51.04;97159.05;619643;229;64350;-74
2023/01/22 10:50:08;;;;;;;;;;;;;;;25.63;51.47;97154.45;619739;229;66266;-75
2023/01/22 10:52:37;;;;;;;;;;;;;;;25.63;50.83;97153.66;619537;228;62996;-74
2023/01/22 10:55:06;;;;;;;;;;;;;;;25.63;52.17;97148.28;619561;229;64278;-76
2023/01/22 10:57:38;;;;;;;;;;;;;;;25.63;50.60;97148.28;619629;229;66788;-76
2023/01/22 11:00:08;;;;;;;;;;;;;;;25.63;50.68;97150.97;619716;229;62963;-76
2023/01/22 11:02:35;;;;;;;;;;;;;;;25.63;51.50;97146.38;619399;228;67448;-76
2023/01/22 11:05:22;;;;;;;;;;;;;;;25.62;50.86;97144.80;619702;229;66324;-76
2023/01/22 11:07:54;;;;;;;;;;;;;;;25.64;50.78;97155.25;619662;229;65141;-76
2023/01/22 11:10:23;;;;;;;;;;;;;;;25.65;51.87;97154.17;619642;228;66554;-75
2023/01/22 11:12:52;;;;;;;;;;;;;;;25.64;50.77;97149.86;619721;229;66110;-75
2023/01/22 11:15:42;;;;;;;;;;;;;;;25.64;50.18;97147.17;619674;228;65021;-75
2023/01/22 11:18:12;;;;;;;;;;;;;;;25.65;52.31;97152.27;619695;227;46965;-75
2023/01/22 11:20:44;;;;;;;;;;;;;;;25.65;52.82;97163.03;619612;227;64080;-75
2023/01/22 11:23:15;;;;;;;;;;;;;;;25.64;51.87;97157.94;619465;228;64887;-75
2023/01/22 11:26:00;;;;;;;;;;;;;;;25.65;52.21;97163.03;619599;229;64168;-75
2023/01/22 11:28:40;;;;;;;;;;;;;;;25.66;51.60;97169.21;619697;229;66095;-76
2023/01/22 11:31:21;;;;;;;;;;;;;;;25.65;51.18;97163.03;604744;229;65148;-75
2023/01/22 11:34:02;;;;;;;;;;;;;;;25.66;52.02;97171.91;619208;229;67153;-76
2023/01/22 11:36:35;;;;;;;;;;;;;;;25.67;50.84;97170.80;619751;229;64058;-74
2023/01/22 11:39:15;;;;;;;;;;;;;;;25.68;51.78;97167.03;619421;227;45305;-74
2023/01/22 11:41:44;;;;;;;;;;;;;;;25.68;51.14;97167.82;604525;234;64243;-74
2023/01/22 11:44:13;;;;;;;;;;;;;;;25.71;53.67;97171.02;619771;225;66360;-75
2023/01/22 11:46:45;;;;;;;;;;;;;;;25.70;52.71;97178.30;618812;229;62498;-75
2023/01/22 11:49:31;;;;;;;;;;;;;;;25.72;51.97;97178.78;618625;229;64313;-75
2023/01/22 11:52:03;;;;;;;;;;;;;;;25.72;52.18;97168.02;618878;229;64224;-70
2023/01/22 11:54:32;;;;;;;;;;;;;;;25.75;51.93;97174.70;618839;229;65068;-71
2023/01/22 11:57:13;;;;;;;;;;;;;;;25.74;51.71;97173.91;618697;228;45154;-71
2023/01/22 11:59:45;;;;;;;;;;;;;;;25.77;52.46;97173.30;618834;229;66527;-70
2023/01/22 12:02:29;;;;;;;;;;;;;;;25.78;51.78;97174.92;618602;228;62753;-71
2023/01/22 12:05:11;;;;;;;;;;;;;;;25.80;50.75;97183.47;618438;227;66415;-70
2023/01/22 12:07:52;;;;;;;;;;;;;;;25.80;51.32;97172.70;618765;229;66972;-70
2023/01/22 12:10:21;;;;;;;;;;;;;;;25.83;52.07;97180.21;618558;228;62974;-70
2023/01/22 12:12:49;;;;;;;;;;;;;;;25.84;52.35;97184.52;618279;228;64320;-70
2023/01/22 12:15:19;;;;;;;;;;;;;;;25.84;51.59;97181.83;618658;228;66834;-71
2023/01/22 12:17:51;;;;;;;;;;;;;;;25.87;52.40;97183.13;618783;229;64869;-70
2023/01/22 12:20:35;;;;;;;;;;;;;;;25.88;52.38;97182.02;618847;229;66446;-70
2023/01/22 12:23:05;;;;;;;;;;;;;;;25.90;52.09;97190.60;618733;228;66370;-70
2023/01/22 12:25:34;;;;;;;;;;;;;;;25.91;50.31;97195.67;618654;228;62742;-70
2023/01/22 12:28:03;;;;;;;;;;;;;;;25.92;52.78;97188.42;618878;228;62751;-71
2023/01/22 12:30:44;;;;;;;;;;;;;;;25.94;51.43;97188.10;609875;229;66738;-71
2023/01/22 12:33:13;;;;;;;;;;;;;;;25.95;52.05;97198.59;618821;229;63701;-71
2023/01/22 12:35:41;;;;;;;;;;;;;;;25.97;51.01;97195.58;618777;228;64191;-71
2023/01/22 12:38:16;;;;;;;;;;;;;;;25.99;51.57;97204.16;618784;229;64529;-71
2023/01/22 12:41:01;;;;;;;;;;;;;;;26.00;51.66;97206.57;618820;228;62746;-71
2023/01/22 12:43:33;;;;;;;;;;;;;;;26.03;51.11;97205.17;618856;229;67094;-70
2023/01/22 12:46:06;;;;;;;;;;;;;;;26.03;50.32;97205.97;617465;228;66676;-71
2023/01/22 12:48:44;;;;;;;;;;;;;;;26.05;51.61;97208.34;618824;229;64873;-70
2023/01/22 12:51:13;;;;;;;;;;;;;;;26.06;50.04;97207.27;618817;229;66742;-71
2023/01/22 12:53:41;;;;;;;;;;;;;;;26.07;49.67;97214.23;616954;229;66814;-70
2023/01/22 12:56:09;;;;;;;;;;;;;;;26.10;50.71;97208.25;618792;229;64745;-70
2023/01/22 12:58:38;;;;;;;;;;;;;;;26.09;50.64;97210.15;618841;229;66808;-70
2023/01/22 13:01:07;;;;;;;;;;;;;;;26.11;50.33;97205.27;618696;229;67563;-70
2023/01/22 13:03:35;;;;;;;;;;;;;;;26.13;50.46;97207.64;618283;228;64878;-70
2023/01/22 13:06:04;;;;;;;;;;;;;;;26.13;51.70;97210.34;618736;229;66695;-70
2023/01/22 13:08:42;;;;;;;;;;;;;;;26.15;51.83;97218.92;617586;228;64459;-70